sensor_id;sensor_type;location;lat;lon;timestamp;P1;durP1;ratioP1;P2;durP2;ratioP2
59486;SDS011;45298;54.918;73.504;2022-11-18T02:07:34;41.42;;;12.57;;
59486;SDS011;45298;54.918;73.504;2022-11-18T02:10:07;46.33;;;14.30;;
59486;SDS011;45298;54.918;73.504;2022-11-18T02:12:36;46.17;;;13.93;;
59486;SDS011;45298;54.918;73.504;2022-11-18T02:15:05;70.28;;;18.63;;
59486;SDS011;45298;54.918;73.504;2022-11-18T02:18:25;47.05;;;15.23;;
59486;SDS011;45298;54.918;73.504;2022-11-18T02:20:43;44.92;;;13.55;;
59486;SDS011;45298;54.918;73.504;2022-11-18T02:23:20;43.55;;;14.02;;
59486;SDS011;45298;54.918;73.504;2022-11-18T02:29:00;52.05;;;13.85;;
59486;SDS011;45298;54.918;73.504;2022-11-18T02:31:47;55.42;;;16.83;;
59486;SDS011;45298;54.918;73.504;2022-11-18T02:34:33;52.60;;;14.80;;
59486;SDS011;45298;54.918;73.504;2022-11-18T02:37:11;46.92;;;14.00;;
59486;SDS011;45298;54.918;73.504;2022-11-18T02:39:50;40.05;;;12.95;;
59486;SDS011;45298;54.918;73.504;2022-11-18T02:42:29;47.13;;;14.00;;
59486;SDS011;45298;54.918;73.504;2022-11-18T02:45:05;58.33;;;14.93;;
59486;SDS011;45298;54.918;73.504;2022-11-18T02:47:38;63.28;;;17.58;;
59486;SDS011;45298;54.918;73.504;2022-11-18T02:50:10;53.90;;;14.13;;
59486;SDS011;45298;54.918;73.504;2022-11-18T02:52:43;43.80;;;15.37;;
59486;SDS011;45298;54.918;73.504;2022-11-18T02:55:13;42.97;;;12.88;;
59486;SDS011;45298;54.918;73.504;2022-11-18T02:57:43;48.55;;;14.70;;
59486;SDS011;45298;54.918;73.504;2022-11-18T03:00:13;43.35;;;14.02;;
59486;SDS011;45298;54.918;73.504;2022-11-18T03:02:43;46.05;;;15.15;;
59486;SDS011;45298;54.918;73.504;2022-11-18T03:05:31;41.55;;;13.00;;
59486;SDS011;45298;54.918;73.504;2022-11-18T03:08:10;50.55;;;14.35;;
59486;SDS011;45298;54.918;73.504;2022-11-18T03:10:45;46.55;;;15.10;;
59486;SDS011;45298;54.918;73.504;2022-11-18T03:13:23;51.80;;;13.73;;
59486;SDS011;45298;54.918;73.504;2022-11-18T03:16:08;49.90;;;13.73;;
59486;SDS011;45298;54.918;73.504;2022-11-18T03:18:43;38.00;;;13.40;;
59486;SDS011;45298;54.918;73.504;2022-11-18T03:21:31;33.40;;;12.82;;
59486;SDS011;45298;54.918;73.504;2022-11-18T03:24:08;35.42;;;12.02;;
59486;SDS011;45298;54.918;73.504;2022-11-18T03:26:46;46.95;;;13.13;;
59486;SDS011;45298;54.918;73.504;2022-11-18T03:29:25;41.05;;;14.52;;
59486;SDS011;45298;54.918;73.504;2022-11-18T03:32:04;43.30;;;13.68;;
59486;SDS011;45298;54.918;73.504;2022-11-18T03:34:38;46.85;;;15.57;;
59486;SDS011;45298;54.918;73.504;2022-11-18T03:37:13;42.17;;;14.73;;
59486;SDS011;45298;54.918;73.504;2022-11-18T03:39:48;41.28;;;13.55;;
59486;SDS011;45298;54.918;73.504;2022-11-18T03:42:33;60.60;;;21.95;;
59486;SDS011;45298;54.918;73.504;2022-11-18T03:45:21;64.72;;;22.02;;
59486;SDS011;45298;54.918;73.504;2022-11-18T03:47:59;73.57;;;22.35;;
59486;SDS011;45298;54.918;73.504;2022-11-18T03:50:36;68.47;;;22.52;;
59486;SDS011;45298;54.918;73.504;2022-11-18T03:53:09;69.68;;;21.23;;
59486;SDS011;45298;54.918;73.504;2022-11-18T03:55:39;61.13;;;19.63;;
59486;SDS011;45298;54.918;73.504;2022-11-18T03:58:22;62.00;;;19.52;;
59486;SDS011;45298;54.918;73.504;2022-11-18T04:01:04;61.75;;;19.60;;
59486;SDS011;45298;54.918;73.504;2022-11-18T04:03:57;54.92;;;16.92;;
59486;SDS011;45298;54.918;73.504;2022-11-18T04:09:19;45.00;;;14.02;;
59486;SDS011;45298;54.918;73.504;2022-11-18T04:11:54;48.38;;;15.63;;
59486;SDS011;45298;54.918;73.504;2022-11-18T04:14:32;44.22;;;16.38;;
59486;SDS011;45298;54.918;73.504;2022-11-18T04:17:08;47.08;;;15.70;;
59486;SDS011;45298;54.918;73.504;2022-11-18T04:19:48;41.63;;;14.30;;
59486;SDS011;45298;54.918;73.504;2022-11-18T04:22:17;50.00;;;15.07;;
59486;SDS011;45298;54.918;73.504;2022-11-18T04:24:46;45.45;;;15.07;;
59486;SDS011;45298;54.918;73.504;2022-11-18T04:27:15;41.95;;;15.55;;
59486;SDS011;45298;54.918;73.504;2022-11-18T04:29:43;48.65;;;15.88;;
59486;SDS011;45298;54.918;73.504;2022-11-18T04:32:12;44.15;;;15.10;;
59486;SDS011;45298;54.918;73.504;2022-11-18T04:34:41;43.65;;;15.15;;
59486;SDS011;45298;54.918;73.504;2022-11-18T04:37:09;45.38;;;14.98;;
59486;SDS011;45298;54.918;73.504;2022-11-18T04:39:38;35.45;;;14.10;;
59486;SDS011;45298;54.918;73.504;2022-11-18T04:42:09;41.35;;;14.13;;
59486;SDS011;45298;54.918;73.504;2022-11-18T04:44:38;40.17;;;13.38;;
59486;SDS011;45298;54.918;73.504;2022-11-18T04:47:07;38.50;;;13.82;;
59486;SDS011;45298;54.918;73.504;2022-11-18T04:49:35;34.65;;;12.52;;
59486;SDS011;45298;54.918;73.504;2022-11-18T04:52:04;41.65;;;14.85;;
59486;SDS011;45298;54.918;73.504;2022-11-18T04:54:33;50.53;;;15.20;;
59486;SDS011;45298;54.918;73.504;2022-11-18T04:57:02;39.58;;;14.38;;
59486;SDS011;45298;54.918;73.504;2022-11-18T04:59:31;39.25;;;14.05;;
59486;SDS011;45298;54.918;73.504;2022-11-18T05:02:00;32.72;;;12.38;;
59486;SDS011;45298;54.918;73.504;2022-11-18T05:04:30;61.95;;;17.58;;
59486;SDS011;45298;54.918;73.504;2022-11-18T05:07:01;44.78;;;13.70;;
59486;SDS011;45298;54.918;73.504;2022-11-18T05:09:31;41.17;;;12.40;;
59486;SDS011;45298;54.918;73.504;2022-11-18T05:12:01;30.92;;;11.95;;
59486;SDS011;45298;54.918;73.504;2022-11-18T05:14:48;34.30;;;12.35;;
59486;SDS011;45298;54.918;73.504;2022-11-18T05:17:17;29.80;;;10.23;;
59486;SDS011;45298;54.918;73.504;2022-11-18T05:19:46;34.40;;;11.85;;
59486;SDS011;45298;54.918;73.504;2022-11-18T05:22:15;34.70;;;11.43;;
59486;SDS011;45298;54.918;73.504;2022-11-18T05:24:44;31.38;;;10.13;;
59486;SDS011;45298;54.918;73.504;2022-11-18T05:27:12;31.48;;;10.00;;
59486;SDS011;45298;54.918;73.504;2022-11-18T05:29:42;25.17;;;10.50;;
59486;SDS011;45298;54.918;73.504;2022-11-18T05:32:11;22.50;;;9.40;;
59486;SDS011;45298;54.918;73.504;2022-11-18T05:34:40;28.67;;;9.43;;
59486;SDS011;45298;54.918;73.504;2022-11-18T05:37:09;23.88;;;8.70;;
59486;SDS011;45298;54.918;73.504;2022-11-18T05:39:38;24.35;;;9.13;;
59486;SDS011;45298;54.918;73.504;2022-11-18T05:42:07;25.40;;;8.95;;
59486;SDS011;45298;54.918;73.504;2022-11-18T05:44:55;17.88;;;6.50;;
59486;SDS011;45298;54.918;73.504;2022-11-18T05:47:25;33.85;;;11.13;;
59486;SDS011;45298;54.918;73.504;2022-11-18T05:49:54;23.75;;;9.55;;
59486;SDS011;45298;54.918;73.504;2022-11-18T05:52:22;24.45;;;8.50;;
59486;SDS011;45298;54.918;73.504;2022-11-18T05:54:51;26.30;;;8.60;;
59486;SDS011;45298;54.918;73.504;2022-11-18T05:57:20;25.13;;;9.02;;
59486;SDS011;45298;54.918;73.504;2022-11-18T05:59:48;32.50;;;10.00;;
59486;SDS011;45298;54.918;73.504;2022-11-18T06:02:18;23.52;;;8.63;;
59486;SDS011;45298;54.918;73.504;2022-11-18T06:04:56;25.10;;;9.75;;
59486;SDS011;45298;54.918;73.504;2022-11-18T06:07:31;47.88;;;15.07;;
59486;SDS011;45298;54.918;73.504;2022-11-18T06:10:06;27.38;;;9.90;;
59486;SDS011;45298;54.918;73.504;2022-11-18T06:12:38;29.90;;;9.77;;
59486;SDS011;45298;54.918;73.504;2022-11-18T06:15:19;23.25;;;8.35;;
59486;SDS011;45298;54.918;73.504;2022-11-18T06:17:52;22.25;;;8.52;;
59486;SDS011;45298;54.918;73.504;2022-11-18T06:20:30;22.25;;;9.55;;
59486;SDS011;45298;54.918;73.504;2022-11-18T06:23:03;37.50;;;13.13;;
59486;SDS011;45298;54.918;73.504;2022-11-18T06:25:31;41.55;;;12.07;;
59486;SDS011;45298;54.918;73.504;2022-11-18T06:28:03;32.13;;;11.48;;
59486;SDS011;45298;54.918;73.504;2022-11-18T06:30:32;25.20;;;8.57;;
59486;SDS011;45298;54.918;73.504;2022-11-18T06:33:01;25.70;;;8.70;;
59486;SDS011;45298;54.918;73.504;2022-11-18T06:35:30;27.33;;;9.82;;
59486;SDS011;45298;54.918;73.504;2022-11-18T06:37:59;21.30;;;7.97;;
59486;SDS011;45298;54.918;73.504;2022-11-18T06:40:27;19.02;;;6.75;;
59486;SDS011;45298;54.918;73.504;2022-11-18T06:43:05;26.42;;;7.70;;
59486;SDS011;45298;54.918;73.504;2022-11-18T06:46:00;18.73;;;6.22;;
59486;SDS011;45298;54.918;73.504;2022-11-18T06:48:49;17.42;;;6.90;;
59486;SDS011;45298;54.918;73.504;2022-11-18T06:51:22;18.17;;;6.93;;
59486;SDS011;45298;54.918;73.504;2022-11-18T06:53:53;20.02;;;7.63;;
59486;SDS011;45298;54.918;73.504;2022-11-18T06:56:22;19.65;;;7.15;;
59486;SDS011;45298;54.918;73.504;2022-11-18T06:58:55;17.35;;;7.88;;
59486;SDS011;45298;54.918;73.504;2022-11-18T07:01:26;21.60;;;8.40;;
59486;SDS011;45298;54.918;73.504;2022-11-18T07:03:59;15.25;;;6.65;;
59486;SDS011;45298;54.918;73.504;2022-11-18T07:06:32;21.33;;;8.35;;
59486;SDS011;45298;54.918;73.504;2022-11-18T07:09:04;40.15;;;13.07;;
59486;SDS011;45298;54.918;73.504;2022-11-18T07:11:34;19.60;;;7.53;;
59486;SDS011;45298;54.918;73.504;2022-11-18T07:14:05;19.17;;;7.78;;
59486;SDS011;45298;54.918;73.504;2022-11-18T07:16:35;16.45;;;6.43;;
59486;SDS011;45298;54.918;73.504;2022-11-18T07:19:11;20.90;;;8.77;;
59486;SDS011;45298;54.918;73.504;2022-11-18T07:21:41;14.32;;;5.60;;
59486;SDS011;45298;54.918;73.504;2022-11-18T07:24:11;11.80;;;5.28;;
59486;SDS011;45298;54.918;73.504;2022-11-18T07:26:41;13.95;;;5.22;;
59486;SDS011;45298;54.918;73.504;2022-11-18T07:29:10;21.17;;;7.45;;
59486;SDS011;45298;54.918;73.504;2022-11-18T07:31:39;11.23;;;4.35;;
59486;SDS011;45298;54.918;73.504;2022-11-18T07:34:07;12.50;;;4.63;;
59486;SDS011;45298;54.918;73.504;2022-11-18T07:36:36;12.80;;;4.63;;
59486;SDS011;45298;54.918;73.504;2022-11-18T07:39:06;12.77;;;4.57;;
59486;SDS011;45298;54.918;73.504;2022-11-18T07:41:34;15.43;;;4.43;;
59486;SDS011;45298;54.918;73.504;2022-11-18T07:44:03;19.08;;;6.07;;
59486;SDS011;45298;54.918;73.504;2022-11-18T07:46:34;16.20;;;4.90;;
59486;SDS011;45298;54.918;73.504;2022-11-18T07:49:05;9.93;;;4.28;;
59486;SDS011;45298;54.918;73.504;2022-11-18T07:51:38;14.65;;;4.72;;
59486;SDS011;45298;54.918;73.504;2022-11-18T07:54:09;15.20;;;5.50;;
59486;SDS011;45298;54.918;73.504;2022-11-18T07:56:39;12.38;;;4.90;;
59486;SDS011;45298;54.918;73.504;2022-11-18T07:59:08;12.02;;;4.57;;
59486;SDS011;45298;54.918;73.504;2022-11-18T08:01:36;11.75;;;4.55;;
59486;SDS011;45298;54.918;73.504;2022-11-18T08:04:07;25.33;;;8.85;;
59486;SDS011;45298;54.918;73.504;2022-11-18T08:09:08;9.30;;;3.33;;
59486;SDS011;45298;54.918;73.504;2022-11-18T08:11:39;16.67;;;6.05;;
59486;SDS011;45298;54.918;73.504;2022-11-18T08:14:08;18.92;;;6.32;;
59486;SDS011;45298;54.918;73.504;2022-11-18T08:16:37;8.45;;;3.17;;
59486;SDS011;45298;54.918;73.504;2022-11-18T08:19:05;12.77;;;4.97;;
59486;SDS011;45298;54.918;73.504;2022-11-18T08:21:34;9.80;;;4.13;;
59486;SDS011;45298;54.918;73.504;2022-11-18T08:24:03;10.48;;;3.65;;
59486;SDS011;45298;54.918;73.504;2022-11-18T08:26:32;12.77;;;4.35;;
59486;SDS011;45298;54.918;73.504;2022-11-18T08:29:01;10.50;;;4.00;;
59486;SDS011;45298;54.918;73.504;2022-11-18T08:31:30;7.70;;;3.55;;
59486;SDS011;45298;54.918;73.504;2022-11-18T08:34:00;7.47;;;3.17;;
59486;SDS011;45298;54.918;73.504;2022-11-18T08:36:32;8.52;;;3.42;;
59486;SDS011;45298;54.918;73.504;2022-11-18T08:39:04;8.13;;;3.35;;
59486;SDS011;45298;54.918;73.504;2022-11-18T08:41:38;11.55;;;4.40;;
59486;SDS011;45298;54.918;73.504;2022-11-18T08:44:10;7.72;;;3.17;;
59486;SDS011;45298;54.918;73.504;2022-11-18T08:46:41;13.25;;;4.70;;
59486;SDS011;45298;54.918;73.504;2022-11-18T08:49:12;8.02;;;3.50;;
59486;SDS011;45298;54.918;73.504;2022-11-18T08:51:42;6.80;;;2.95;;
59486;SDS011;45298;54.918;73.504;2022-11-18T08:54:10;7.72;;;3.28;;
59486;SDS011;45298;54.918;73.504;2022-11-18T08:56:39;8.38;;;3.97;;
59486;SDS011;45298;54.918;73.504;2022-11-18T08:59:07;7.65;;;2.83;;
59486;SDS011;45298;54.918;73.504;2022-11-18T09:01:36;11.40;;;3.47;;
59486;SDS011;45298;54.918;73.504;2022-11-18T09:04:05;10.10;;;3.40;;
59486;SDS011;45298;54.918;73.504;2022-11-18T09:06:34;7.72;;;3.25;;
59486;SDS011;45298;54.918;73.504;2022-11-18T09:09:05;9.32;;;3.17;;
59486;SDS011;45298;54.918;73.504;2022-11-18T09:11:36;16.83;;;7.28;;
59486;SDS011;45298;54.918;73.504;2022-11-18T09:14:06;10.75;;;3.67;;
59486;SDS011;45298;54.918;73.504;2022-11-18T09:16:55;6.60;;;2.53;;
59486;SDS011;45298;54.918;73.504;2022-11-18T09:19:24;9.40;;;3.80;;
59486;SDS011;45298;54.918;73.504;2022-11-18T09:22:12;9.48;;;4.45;;
59486;SDS011;45298;54.918;73.504;2022-11-18T09:24:41;10.05;;;3.70;;
59486;SDS011;45298;54.918;73.504;2022-11-18T09:27:13;84.55;;;21.10;;
59486;SDS011;45298;54.918;73.504;2022-11-18T09:29:44;10.30;;;3.75;;
59486;SDS011;45298;54.918;73.504;2022-11-18T09:32:13;74.15;;;20.63;;
59486;SDS011;45298;54.918;73.504;2022-11-18T09:34:41;10.57;;;4.18;;
59486;SDS011;45298;54.918;73.504;2022-11-18T09:37:10;12.40;;;4.68;;
59486;SDS011;45298;54.918;73.504;2022-11-18T09:39:39;16.15;;;6.28;;
59486;SDS011;45298;54.918;73.504;2022-11-18T09:45:12;9.57;;;4.43;;
59486;SDS011;45298;54.918;73.504;2022-11-18T09:47:53;11.50;;;4.20;;
59486;SDS011;45298;54.918;73.504;2022-11-18T09:53:18;10.82;;;4.07;;
59486;SDS011;45298;54.918;73.504;2022-11-18T09:55:52;11.77;;;4.25;;
59486;SDS011;45298;54.918;73.504;2022-11-18T09:58:28;10.65;;;3.90;;
59486;SDS011;45298;54.918;73.504;2022-11-18T10:01:01;9.85;;;4.10;;
59486;SDS011;45298;54.918;73.504;2022-11-18T10:03:36;14.13;;;4.05;;
59486;SDS011;45298;54.918;73.504;2022-11-18T10:17:21;15.25;;;5.15;;
59486;SDS011;45298;54.918;73.504;2022-11-18T10:20:31;14.35;;;4.75;;
59486;SDS011;45298;54.918;73.504;2022-11-18T10:23:34;12.32;;;4.95;;
59486;SDS011;45298;54.918;73.504;2022-11-18T10:29:25;13.90;;;4.18;;
59486;SDS011;45298;54.918;73.504;2022-11-18T10:34:34;11.23;;;4.45;;
59486;SDS011;45298;54.918;73.504;2022-11-18T10:37:34;11.52;;;4.80;;
59486;SDS011;45298;54.918;73.504;2022-11-18T10:40:25;29.08;;;9.55;;
59486;SDS011;45298;54.918;73.504;2022-11-18T10:42:55;14.52;;;5.68;;
59486;SDS011;45298;54.918;73.504;2022-11-18T10:45:26;35.97;;;9.57;;
59486;SDS011;45298;54.918;73.504;2022-11-18T10:47:59;13.43;;;4.88;;
59486;SDS011;45298;54.918;73.504;2022-11-18T10:50:31;16.15;;;4.60;;
59486;SDS011;45298;54.918;73.504;2022-11-18T10:53:00;9.82;;;4.13;;
59486;SDS011;45298;54.918;73.504;2022-11-18T10:55:30;13.77;;;4.57;;
59486;SDS011;45298;54.918;73.504;2022-11-18T10:58:06;13.60;;;4.32;;
59486;SDS011;45298;54.918;73.504;2022-11-18T11:00:44;14.38;;;5.00;;
59486;SDS011;45298;54.918;73.504;2022-11-18T11:03:26;14.13;;;4.32;;
59486;SDS011;45298;54.918;73.504;2022-11-18T11:06:13;10.95;;;4.22;;
59486;SDS011;45298;54.918;73.504;2022-11-18T11:08:49;10.10;;;3.92;;
59486;SDS011;45298;54.918;73.504;2022-11-18T11:11:21;31.77;;;10.40;;
59486;SDS011;45298;54.918;73.504;2022-11-18T11:17:24;60.55;;;17.38;;
59486;SDS011;45298;54.918;73.504;2022-11-18T11:19:47;115.13;;;29.65;;
59486;SDS011;45298;54.918;73.504;2022-11-18T11:22:22;22.65;;;6.45;;
59486;SDS011;45298;54.918;73.504;2022-11-18T11:24:52;37.78;;;11.25;;
59486;SDS011;45298;54.918;73.504;2022-11-18T11:33:45;77.07;;;20.58;;
59486;SDS011;45298;54.918;73.504;2022-11-18T11:42:13;18.73;;;5.07;;
59486;SDS011;45298;54.918;73.504;2022-11-18T11:48:04;16.13;;;4.88;;
59486;SDS011;45298;54.918;73.504;2022-11-18T11:56:57;26.60;;;8.38;;
59486;SDS011;45298;54.918;73.504;2022-11-18T11:59:36;11.20;;;4.28;;
59486;SDS011;45298;54.918;73.504;2022-11-18T12:04:54;9.05;;;3.70;;
59486;SDS011;45298;54.918;73.504;2022-11-18T12:07:41;13.77;;;4.32;;
59486;SDS011;45298;54.918;73.504;2022-11-18T12:10:37;27.35;;;7.40;;
59486;SDS011;45298;54.918;73.504;2022-11-18T12:19:10;28.17;;;9.85;;
59486;SDS011;45298;54.918;73.504;2022-11-18T12:26:46;10.95;;;4.75;;
59486;SDS011;45298;54.918;73.504;2022-11-18T12:31:53;23.15;;;7.95;;
59486;SDS011;45298;54.918;73.504;2022-11-18T12:36:53;15.90;;;4.95;;
59486;SDS011;45298;54.918;73.504;2022-11-18T12:41:52;11.15;;;3.90;;
59486;SDS011;45298;54.918;73.504;2022-11-18T12:44:44;15.68;;;5.30;;
59486;SDS011;45298;54.918;73.504;2022-11-18T12:50:13;10.25;;;4.00;;
59486;SDS011;45298;54.918;73.504;2022-11-18T12:52:44;10.43;;;3.78;;
59486;SDS011;45298;54.918;73.504;2022-11-18T12:55:15;14.60;;;4.40;;
59486;SDS011;45298;54.918;73.504;2022-11-18T12:57:48;11.05;;;4.38;;
59486;SDS011;45298;54.918;73.504;2022-11-18T13:02:52;13.75;;;4.88;;
59486;SDS011;45298;54.918;73.504;2022-11-18T13:05:30;12.60;;;5.28;;
59486;SDS011;45298;54.918;73.504;2022-11-18T13:08:03;13.95;;;5.25;;
59486;SDS011;45298;54.918;73.504;2022-11-18T13:19:28;33.38;;;9.35;;
59486;SDS011;45298;54.918;73.504;2022-11-18T13:21:58;23.40;;;7.00;;
59486;SDS011;45298;54.918;73.504;2022-11-18T13:24:47;11.85;;;4.53;;
59486;SDS011;45298;54.918;73.504;2022-11-18T13:30:00;18.55;;;4.90;;
59486;SDS011;45298;54.918;73.504;2022-11-18T13:32:44;13.65;;;4.65;;
59486;SDS011;45298;54.918;73.504;2022-11-18T13:35:15;17.73;;;5.85;;
59486;SDS011;45298;54.918;73.504;2022-11-18T13:37:48;16.95;;;5.05;;
59486;SDS011;45298;54.918;73.504;2022-11-18T13:42:54;19.80;;;5.57;;
59486;SDS011;45298;54.918;73.504;2022-11-18T13:45:24;20.98;;;5.32;;
59486;SDS011;45298;54.918;73.504;2022-11-18T13:47:59;24.92;;;6.18;;
59486;SDS011;45298;54.918;73.504;2022-11-18T13:50:36;25.25;;;7.10;;
59486;SDS011;45298;54.918;73.504;2022-11-18T13:55:55;25.17;;;7.18;;
59486;SDS011;45298;54.918;73.504;2022-11-18T14:01:24;44.22;;;12.50;;
59486;SDS011;45298;54.918;73.504;2022-11-18T14:03:57;13.45;;;4.82;;
59486;SDS011;45298;54.918;73.504;2022-11-18T14:06:33;20.63;;;6.43;;
59486;SDS011;45298;54.918;73.504;2022-11-18T14:09:23;26.63;;;6.55;;
59486;SDS011;45298;54.918;73.504;2022-11-18T14:12:15;28.23;;;8.45;;
59486;SDS011;45298;54.918;73.504;2022-11-18T14:14:50;39.50;;;12.20;;
59486;SDS011;45298;54.918;73.504;2022-11-18T14:17:23;17.95;;;5.57;;
59486;SDS011;45298;54.918;73.504;2022-11-18T14:19:54;22.77;;;7.95;;
59486;SDS011;45298;54.918;73.504;2022-11-18T14:22:26;17.40;;;5.57;;
59486;SDS011;45298;54.918;73.504;2022-11-18T14:24:58;23.13;;;7.75;;
59486;SDS011;45298;54.918;73.504;2022-11-18T14:27:46;25.65;;;6.65;;
59486;SDS011;45298;54.918;73.504;2022-11-18T14:30:31;17.38;;;6.35;;
59486;SDS011;45298;54.918;73.504;2022-11-18T14:35:55;27.98;;;8.23;;
59486;SDS011;45298;54.918;73.504;2022-11-18T14:41:30;27.80;;;7.60;;
59486;SDS011;45298;54.918;73.504;2022-11-18T14:44:15;18.48;;;5.95;;
59486;SDS011;45298;54.918;73.504;2022-11-18T14:46:51;13.07;;;5.30;;
59486;SDS011;45298;54.918;73.504;2022-11-18T14:49:25;16.40;;;5.63;;
59486;SDS011;45298;54.918;73.504;2022-11-18T14:51:55;18.75;;;5.85;;
59486;SDS011;45298;54.918;73.504;2022-11-18T14:54:25;16.42;;;5.18;;
59486;SDS011;45298;54.918;73.504;2022-11-18T14:56:56;27.48;;;7.07;;
59486;SDS011;45298;54.918;73.504;2022-11-18T14:59:28;14.40;;;4.90;;
59486;SDS011;45298;54.918;73.504;2022-11-18T15:01:57;11.52;;;4.53;;
59486;SDS011;45298;54.918;73.504;2022-11-18T15:04:26;13.13;;;5.03;;
59486;SDS011;45298;54.918;73.504;2022-11-18T15:06:55;15.38;;;4.97;;
59486;SDS011;45298;54.918;73.504;2022-11-18T15:09:25;17.95;;;5.03;;
59486;SDS011;45298;54.918;73.504;2022-11-18T15:11:56;12.07;;;4.90;;
59486;SDS011;45298;54.918;73.504;2022-11-18T15:14:25;13.82;;;5.25;;
59486;SDS011;45298;54.918;73.504;2022-11-18T15:16:55;11.63;;;4.38;;
59486;SDS011;45298;54.918;73.504;2022-11-18T15:19:24;11.88;;;4.78;;
59486;SDS011;45298;54.918;73.504;2022-11-18T15:21:53;17.05;;;5.18;;
59486;SDS011;45298;54.918;73.504;2022-11-18T15:24:22;16.38;;;4.47;;
59486;SDS011;45298;54.918;73.504;2022-11-18T15:26:51;12.98;;;4.80;;
59486;SDS011;45298;54.918;73.504;2022-11-18T15:29:21;9.65;;;3.80;;
59486;SDS011;45298;54.918;73.504;2022-11-18T15:31:51;13.13;;;4.68;;
59486;SDS011;45298;54.918;73.504;2022-11-18T15:34:20;12.38;;;4.68;;
59486;SDS011;45298;54.918;73.504;2022-11-18T15:36:49;10.85;;;4.28;;
59486;SDS011;45298;54.918;73.504;2022-11-18T15:39:18;9.45;;;4.20;;
59486;SDS011;45298;54.918;73.504;2022-11-18T15:41:47;12.65;;;4.15;;
59486;SDS011;45298;54.918;73.504;2022-11-18T15:44:16;9.35;;;3.90;;
59486;SDS011;45298;54.918;73.504;2022-11-18T15:46:45;13.80;;;4.63;;
59486;SDS011;45298;54.918;73.504;2022-11-18T22:02:03;13.90;;;5.22;;
59486;SDS011;45298;54.918;73.504;2022-11-18T22:04:32;16.30;;;5.63;;
59486;SDS011;45298;54.918;73.504;2022-11-18T22:07:19;28.63;;;8.52;;
59486;SDS011;45298;54.918;73.504;2022-11-18T22:09:52;14.05;;;5.78;;
59486;SDS011;45298;54.918;73.504;2022-11-18T22:12:21;12.77;;;5.20;;
59486;SDS011;45298;54.918;73.504;2022-11-18T22:14:51;20.15;;;6.25;;
59486;SDS011;45298;54.918;73.504;2022-11-18T22:20:42;50.17;;;13.63;;
59486;SDS011;45298;54.918;73.504;2022-11-18T22:23:10;115.68;;;30.05;;
59486;SDS011;45298;54.918;73.504;2022-11-18T22:25:39;17.05;;;5.57;;
59486;SDS011;45298;54.918;73.504;2022-11-18T22:28:07;14.63;;;5.78;;
59486;SDS011;45298;54.918;73.504;2022-11-18T22:30:36;13.35;;;5.13;;
59486;SDS011;45298;54.918;73.504;2022-11-18T22:33:05;15.48;;;5.20;;
59486;SDS011;45298;54.918;73.504;2022-11-18T22:35:33;20.42;;;6.63;;
59486;SDS011;45298;54.918;73.504;2022-11-18T22:38:01;13.75;;;4.82;;
59486;SDS011;45298;54.918;73.504;2022-11-18T22:40:30;11.40;;;5.25;;
59486;SDS011;45298;54.918;73.504;2022-11-18T22:42:59;11.57;;;5.45;;
59486;SDS011;45298;54.918;73.504;2022-11-18T22:45:27;14.55;;;5.25;;
59486;SDS011;45298;54.918;73.504;2022-11-18T22:47:56;14.90;;;5.65;;
59486;SDS011;45298;54.918;73.504;2022-11-18T22:50:25;14.32;;;5.55;;
59486;SDS011;45298;54.918;73.504;2022-11-18T22:52:53;20.50;;;6.18;;
59486;SDS011;45298;54.918;73.504;2022-11-18T22:55:22;14.30;;;5.32;;
59486;SDS011;45298;54.918;73.504;2022-11-18T22:57:51;14.07;;;5.40;;
59486;SDS011;45298;54.918;73.504;2022-11-18T23:00:19;17.42;;;5.90;;
59486;SDS011;45298;54.918;73.504;2022-11-18T23:02:48;13.85;;;5.47;;
59486;SDS011;45298;54.918;73.504;2022-11-18T23:05:17;14.30;;;5.50;;
59486;SDS011;45298;54.918;73.504;2022-11-18T23:07:46;11.57;;;4.60;;
59486;SDS011;45298;54.918;73.504;2022-11-18T23:10:15;17.13;;;7.13;;
59486;SDS011;45298;54.918;73.504;2022-11-18T23:12:44;13.60;;;4.85;;
59486;SDS011;45298;54.918;73.504;2022-11-18T23:15:31;12.38;;;4.18;;
59486;SDS011;45298;54.918;73.504;2022-11-18T23:18:00;13.05;;;4.82;;
59486;SDS011;45298;54.918;73.504;2022-11-18T23:20:36;30.92;;;10.40;;
59486;SDS011;45298;54.918;73.504;2022-11-18T23:23:05;15.07;;;5.85;;
59486;SDS011;45298;54.918;73.504;2022-11-18T23:25:33;14.98;;;4.45;;
59486;SDS011;45298;54.918;73.504;2022-11-18T23:28:02;14.63;;;5.03;;
59486;SDS011;45298;54.918;73.504;2022-11-18T23:30:31;15.18;;;5.25;;
59486;SDS011;45298;54.918;73.504;2022-11-18T23:33:00;16.50;;;5.10;;
59486;SDS011;45298;54.918;73.504;2022-11-18T23:35:29;14.80;;;5.32;;
59486;SDS011;45298;54.918;73.504;2022-11-18T23:37:58;16.65;;;4.97;;
59486;SDS011;45298;54.918;73.504;2022-11-18T23:40:26;12.63;;;5.05;;
59486;SDS011;45298;54.918;73.504;2022-11-18T23:42:58;11.82;;;4.55;;
59486;SDS011;45298;54.918;73.504;2022-11-18T23:45:26;15.38;;;5.68;;
59486;SDS011;45298;54.918;73.504;2022-11-18T23:47:56;14.20;;;5.15;;
59486;SDS011;45298;54.918;73.504;2022-11-18T23:50:30;13.18;;;5.68;;
59486;SDS011;45298;54.918;73.504;2022-11-18T23:53:05;11.45;;;4.50;;
59486;SDS011;45298;54.918;73.504;2022-11-18T23:55:34;12.85;;;5.25;;
59486;SDS011;45298;54.918;73.504;2022-11-18T23:58:03;17.00;;;5.22;;
